Historyczne dane pomiarowe

Dodano dane terminowe – wersja testowa.

Dane z okresu 1951-2019

Wersja bazy: 1.34 [2019-03-16, lista zmian], aktualizacja planowana na 2019-04-15

Dane meteo z obszaru Polski uzyskane na podstawie danych udostępnionych przez Instytut Meteorologii i Gospodarki Wodnej – Państwowy Instytut Badawczy.

 

Wybierz Datę:    

       

TemperaturaWilgotnośćWiatrCiśnienieOpadyŚniegCzas trwania zjawisk
 Stacja t tx tn tng RH VA  wxwx mslp ppp RRR   cm mm wxwxwxwxwxwxwx
1972-06-13 20.5 25.8 17.6--- 8.0 0.0---- 23.0------------
1972-06-14 19.7 26.0 15.9--- 7.3 1.3---- 5.5------------
1972-06-15 18.4 24.2 15.6--- 7.3 0.7---- 0.0------------
1972-06-16 16.9 23.0 13.1--- 7.7 2.3---- 0.0------------
1972-06-17 14.8 19.7 10.4--- 6.7 2.0---- 0.0------------
1972-06-18 15.8 20.6 9.6--- 5.0 1.0---- 0.7------------
1972-06-19 17.3 23.8 9.3--- 3.7 1.0---- 0.0------------
1972-06-20 17.6 23.3 12.4--- 4.7 2.3---- 0.0------------
1972-06-21 15.5 21.6 7.7--- 4.7 1.0---- 0.0------------
1972-06-22 21.3 27.9 12.7--- 2.0 1.0---- 0.0------------
1972-06-23 19.1 25.4 16.3--- 5.7 2.0---- 16.7------------
1972-06-24 11.8 17.8 9.9--- 7.7 1.7---- 8.0------------
1972-06-25 10.0 13.4 8.2--- 8.0 2.0---- 24.5------------
1972-06-26 12.4 17.1 9.0--- 5.3 0.7---- 0.2------------
1972-06-27 13.3 17.1 9.4--- 8.0 2.0---- 3.3------------
1972-06-28 14.5 22.7 8.9--- 8.0 2.0---- 4.0------------
1972-06-29 17.3 22.4 14.6--- 7.7 1.7---- 8.4------------
1972-06-30 19.7 25.5 13.8--- 1.7 0.7---- 0.0------------
1972-07-01 14.7 23.0 13.1--- 8.0 3.7---- 0.0------------
1972-07-02 15.1 19.7 11.9--- 7.0 2.7---- 0.0------------
1972-07-03 16.1 19.9 12.2--- 6.3 2.3---- 0.0------------
1972-07-04 14.6 17.5 13.3--- 7.7 1.0---- 3.1------------
1972-07-05 16.3 21.9 10.1--- 4.7 1.0---- 0.0------------
1972-07-06 17.8 24.3 10.6--- 4.0 1.7---- 0.0------------
1972-07-07 18.6 25.3 12.4--- 6.7 1.0---- 6.1------------
1972-07-08 19.9 24.8 16.6--- 7.3 2.0---- 0.0------------
1972-07-09 22.2 27.7 16.4--- 3.0 0.7---- 0.0------------
1972-07-10 22.6 27.8 14.0--- 2.3 1.0---- 0.0------------
1972-07-11 14.0 25.2 12.5--- 8.0 2.3---- 0.5------------
1972-07-12 12.3 14.0 10.6--- 8.0 3.3---- 4.9------------
142.8 ms

 

Źródłem pochodzenia danych jest Instytut Meteorologii i Gospodarki Wodnej – Państwowy Instytut Badawczy. Dane Instytutu Meteorologii i Gospodarki Wodnej – Państwowego Instytutu Badawczego zostały przetworzone.

Dane źródłowe można odnaleźć na stronie https://dane.imgw.pl